Time;durP1;ratioP1;P1;durP2;ratioP2;P2;SDS_P1;SDS_P2;PMS_P1;PMS_P2;Temp;Humidity;BMP_temperature;BMP_pressure;BME280_temperature;BME280_humidity;BME280_pressure;Samples;Min_cycle;Max_cycle;Signal;HPM_P1;HPM_P2
2023/03/08 00:00:43;;;;;;;3.07;2.83;;;-0.10;1.00;;;;;;5033740;28;20180;-74
2023/03/08 00:03:13;;;;;;;2.43;2.33;;;-0.10;1.00;;;;;;5038264;28;20171;-68
2023/03/08 00:05:39;;;;;;;3.20;2.45;;;-0.10;1.00;;;;;;5051202;28;20230;-68
2023/03/08 00:08:04;;;;;;;1.97;1.87;;;-0.10;1.00;;;;;;5053339;28;20587;-72
2023/03/08 00:10:30;;;;;;;3.00;2.43;;;-0.10;1.00;;;;;;5051531;28;20647;-74
2023/03/08 00:12:56;;;;;;;1.90;1.80;;;-0.10;1.00;;;;;;5052078;28;20185;-70
2023/03/08 00:15:21;;;;;;;4.67;2.03;;;-0.10;1.00;;;;;;5050780;28;20311;-73
2023/03/08 00:17:47;;;;;;;2.43;2.23;;;-0.10;1.00;;;;;;5051867;28;20171;-68
2023/03/08 00:20:14;;;;;;;2.50;2.40;;;-0.10;1.00;;;;;;5051482;28;20165;-69
2023/03/08 00:22:40;;;;;;;2.08;1.92;;;-0.10;1.00;;;;;;5052238;28;20402;-74
2023/03/08 00:25:07;;;;;;;5.35;2.05;;;-0.10;1.00;;;;;;5042731;28;20207;-74
2023/03/08 00:27:34;;;;;;;2.20;2.10;;;-0.10;1.00;;;;;;5048389;28;20186;-68
2023/03/08 00:30:00;;;;;;;1.80;1.70;;;-0.20;1.00;;;;;;5033161;28;20175;-68
2023/03/08 00:32:26;;;;;;;2.50;2.40;;;-0.20;1.00;;;;;;5032527;28;20196;-69
2023/03/08 00:34:52;;;;;;;7.78;2.10;;;-0.20;1.00;;;;;;5036473;28;20191;-70
2023/03/08 00:37:19;;;;;;;2.38;2.28;;;-0.20;1.00;;;;;;5054146;28;20182;-68
2023/03/08 00:39:51;;;;;;;1.92;1.75;;;-0.20;1.00;;;;;;5036571;28;20183;-74
2023/03/08 00:42:17;;;;;;;2.47;2.00;;;-0.20;1.00;;;;;;5039133;28;20186;-73
2023/03/08 00:44:43;;;;;;;2.40;2.22;;;-0.10;1.00;;;;;;5050042;28;20187;-68
2023/03/08 00:47:08;;;;;;;2.40;2.20;;;0.00;1.00;;;;;;5052916;28;20523;-68
2023/03/08 00:49:34;;;;;;;2.63;2.50;;;0.00;1.00;;;;;;5052148;28;20171;-65
2023/03/08 00:52:00;;;;;;;2.03;1.87;;;0.10;1.00;;;;;;5052713;28;20277;-71
2023/03/08 00:54:25;;;;;;;5.23;2.23;;;0.10;1.00;;;;;;5049175;28;20175;-65
2023/03/08 00:56:51;;;;;;;3.00;1.80;;;0.20;1.00;;;;;;5030672;28;20199;-68
2023/03/08 00:59:17;;;;;;;2.00;1.80;;;0.20;1.00;;;;;;5032933;28;20187;-65
2023/03/08 01:01:43;;;;;;;2.83;2.63;;;0.20;1.00;;;;;;5033386;28;20282;-67
2023/03/08 01:04:09;;;;;;;2.20;2.10;;;0.20;1.00;;;;;;5032682;28;20171;-73
2023/03/08 01:06:34;;;;;;;2.83;2.63;;;0.20;1.00;;;;;;5049464;28;20673;-70
2023/03/08 01:09:00;;;;;;;2.43;2.33;;;0.20;1.00;;;;;;5052351;28;20167;-68
2023/03/08 01:11:27;;;;;;;2.23;2.13;;;0.10;1.00;;;;;;5051747;28;20236;-74
2023/03/08 01:13:53;;;;;;;7.00;2.22;;;0.10;1.00;;;;;;5052629;28;20248;-68
2023/03/08 01:16:31;;;;;;;1.50;1.40;;;0.10;1.00;;;;;;5050483;28;20199;-68
2023/03/08 01:18:58;;;;;;;2.00;1.80;;;0.10;1.00;;;;;;5051737;28;20594;-71
2023/03/08 01:21:27;;;;;;;1.92;1.83;;;0.00;1.00;;;;;;5052623;28;20643;-73
2023/03/08 01:23:53;;;;;;;1.77;1.67;;;0.10;1.00;;;;;;5042405;28;20242;-73
2023/03/08 01:26:24;;;;;;;2.58;2.28;;;0.10;1.00;;;;;;5049830;28;20480;-68
2023/03/08 01:28:50;;;;;;;3.75;2.20;;;0.00;1.00;;;;;;5052587;28;20167;-73
2023/03/08 01:31:21;;;;;;;3.65;2.42;;;0.00;1.00;;;;;;5052433;28;20195;-67
2023/03/08 01:33:48;;;;;;;5.38;2.60;;;0.00;1.00;;;;;;5054522;28;20624;-73
2023/03/08 01:36:16;;;;;;;2.75;2.20;;;0.10;1.00;;;;;;5053392;28;20239;-73
2023/03/08 01:38:42;;;;;;;4.30;2.10;;;0.10;1.00;;;;;;5055062;28;20171;-67
2023/03/08 01:41:17;;;;;;;6.22;2.10;;;0.00;1.00;;;;;;5056140;28;20794;-73
2023/03/08 01:43:43;;;;;;;4.97;2.17;;;0.00;1.00;;;;;;5055863;28;20183;-73
2023/03/08 01:46:15;;;;;;;3.28;2.00;;;0.10;1.00;;;;;;5053537;28;20249;-73
2023/03/08 01:48:49;;;;;;;6.82;2.22;;;0.00;1.00;;;;;;5055946;28;20249;-68
2023/03/08 01:51:20;;;;;;;4.57;1.95;;;0.00;1.00;;;;;;5055857;28;20201;-73
2023/03/08 01:53:46;;;;;;;4.70;2.00;;;0.10;1.00;;;;;;5051019;28;20171;-72
2023/03/08 01:56:14;;;;;;;1.93;1.83;;;0.10;1.00;;;;;;5040138;28;20204;-66
2023/03/08 01:58:41;;;;;;;2.17;2.08;;;0.20;1.00;;;;;;5034708;28;20759;-74
2023/03/08 02:01:07;;;;;;;2.28;2.17;;;0.20;1.00;;;;;;5041295;28;20187;-73
2023/03/08 02:03:33;;;;;;;2.00;1.90;;;0.20;1.00;;;;;;5055216;28;20171;-73
2023/03/08 02:05:58;;;;;;;4.33;2.10;;;0.10;1.00;;;;;;5053869;28;20239;-67
2023/03/08 02:08:24;;;;;;;2.07;1.93;;;0.10;1.00;;;;;;5052722;28;20261;-73
2023/03/08 02:10:50;;;;;;;2.23;2.03;;;0.10;1.00;;;;;;5054622;28;20241;-67
2023/03/08 02:13:18;;;;;;;2.23;1.87;;;0.10;1.00;;;;;;5055518;28;20427;-73
2023/03/08 02:15:44;;;;;;;2.42;1.95;;;0.10;1.00;;;;;;5053580;28;20506;-73
2023/03/08 02:18:10;;;;;;;1.80;1.70;;;0.10;1.00;;;;;;5054510;28;20265;-67
2023/03/08 02:20:39;;;;;;;1.83;1.73;;;0.10;1.00;;;;;;5055122;28;20163;-69
2023/03/08 02:23:22;;;;;;;1.98;1.88;;;0.10;1.00;;;;;;5052963;28;20194;-66
2023/03/08 02:26:03;;;;;;;3.60;2.20;;;0.10;1.00;;;;;;5053168;28;20207;-67
2023/03/08 02:28:31;;;;;;;2.10;2.00;;;0.10;7.50;;;;;;5052337;28;20190;-73
2023/03/08 02:30:56;;;;;;;2.10;2.00;;;0.10;9.80;;;;;;5055037;28;20463;-73
2023/03/08 02:33:23;;;;;;;5.40;2.00;;;0.10;16.20;;;;;;5048837;28;20430;-73
2023/03/08 02:35:49;;;;;;;2.75;1.92;;;0.10;13.20;;;;;;5042965;28;20213;-67
2023/03/08 02:38:16;;;;;;;2.25;2.05;;;0.10;14.00;;;;;;5055023;28;20575;-71
2023/03/08 02:40:43;;;;;;;2.00;1.80;;;0.10;14.70;;;;;;5053468;28;20174;-73
2023/03/08 02:43:08;;;;;;;2.50;2.30;;;0.00;10.90;;;;;;5053318;28;20185;-73
2023/03/08 02:45:34;;;;;;;3.03;2.73;;;0.00;14.00;;;;;;5045264;28;20274;-73
2023/03/08 02:48:02;;;;;;;2.37;2.27;;;0.00;10.50;;;;;;5046282;28;20209;-67
2023/03/08 02:50:28;;;;;;;2.53;2.33;;;0.00;13.50;;;;;;5054860;28;20408;-67
2023/03/08 02:52:54;;;;;;;4.05;2.03;;;0.00;12.20;;;;;;5054810;28;20202;-73
2023/03/08 02:55:20;;;;;;;3.73;2.07;;;0.00;12.90;;;;;;5048260;28;20764;-73
2023/03/08 02:57:45;;;;;;;3.60;2.20;;;-0.10;11.70;;;;;;5033470;28;20171;-73
2023/03/08 03:00:13;;;;;;;2.40;2.30;;;-0.10;10.50;;;;;;5033588;28;20587;-68
2023/03/08 03:02:38;;;;;;;2.28;2.17;;;-0.10;9.50;;;;;;5034712;28;20600;-67
2023/03/08 03:05:09;;;;;;;3.23;3.13;;;-0.20;8.90;;;;;;5034687;28;20287;-73
2023/03/08 03:07:36;;;;;;;2.80;2.60;;;-0.20;7.10;;;;;;5054489;28;20177;-68
2023/03/08 03:10:03;;;;;;;4.35;2.60;;;-0.20;16.40;;;;;;5054684;28;20599;-73
2023/03/08 03:12:30;;;;;;;2.80;2.60;;;-0.20;21.00;;;;;;5054305;28;20203;-68
2023/03/08 03:14:55;;;;;;;3.72;3.42;;;-0.20;23.40;;;;;;5052105;28;20178;-69
2023/03/08 03:17:21;;;;;;;2.60;2.40;;;-0.20;34.20;;;;;;5052752;28;20178;-67
2023/03/08 03:19:47;;;;;;;4.23;2.50;;;-0.20;45.80;;;;;;5035039;28;20181;-72
2023/03/08 03:22:13;;;;;;;4.03;3.30;;;-0.20;57.40;;;;;;5033411;28;20246;-70
2023/03/08 03:24:39;;;;;;;4.35;3.50;;;-0.20;71.20;;;;;;5047941;28;20183;-67
2023/03/08 03:27:04;;;;;;;3.43;3.23;;;-0.10;86.40;;;;;;5034649;28;20214;-73
2023/03/08 03:29:30;;;;;;;4.07;3.73;;;-0.10;87.70;;;;;;5034148;28;20264;-67
2023/03/08 03:31:56;;;;;;;8.37;4.17;;;-0.20;87.60;;;;;;5033768;28;20206;-73
2023/03/08 03:34:21;;;;;;;3.70;3.50;;;-0.10;88.60;;;;;;5032543;28;20194;-71
2023/03/08 03:36:47;;;;;;;5.27;4.30;;;-0.10;98.30;;;;;;5049098;28;20198;-73
2023/03/08 03:39:13;;;;;;;7.30;4.67;;;-0.10;99.90;;;;;;5052728;28;20186;-68
2023/03/08 03:41:38;;;;;;;6.53;4.60;;;-0.10;99.90;;;;;;5053794;28;20171;-73
2023/03/08 03:44:04;;;;;;;4.90;4.47;;;0.00;99.90;;;;;;5052651;28;20232;-74
2023/03/08 03:46:30;;;;;;;8.63;4.50;;;0.00;99.90;;;;;;5039736;28;20207;-73
2023/03/08 03:48:56;;;;;;;5.03;4.37;;;0.10;99.90;;;;;;5033789;28;20414;-72
2023/03/08 03:51:22;;;;;;;4.63;4.23;;;0.10;99.90;;;;;;5033163;28;20325;-68
2023/03/08 03:53:48;;;;;;;5.53;4.80;;;0.20;99.90;;;;;;5031827;28;20636;-68
2023/03/08 03:56:14;;;;;;;5.40;5.00;;;0.20;99.90;;;;;;5031736;28;20206;-72
2023/03/08 03:58:40;;;;;;;6.70;5.67;;;0.30;99.90;;;;;;5033717;28;20243;-73
2023/03/08 04:01:11;;;;;;;5.72;5.25;;;0.30;99.90;;;;;;5034509;28;20262;-67
2023/03/08 04:03:37;;;;;;;6.82;5.35;;;0.40;99.90;;;;;;5051613;28;20266;-65
2023/03/08 04:06:15;;;;;;;6.00;5.10;;;0.40;99.90;;;;;;5051612;28;20305;-68
2023/03/08 04:08:41;;;;;;;5.80;5.30;;;0.30;99.90;;;;;;5050158;28;20442;-71
2023/03/08 04:11:08;;;;;;;6.17;5.67;;;0.30;99.90;;;;;;5040218;28;20213;-71
2023/03/08 04:13:35;;;;;;;5.70;5.30;;;0.30;99.90;;;;;;5052005;28;20416;-70
2023/03/08 04:16:15;;;;;;;6.20;5.70;;;0.40;99.90;;;;;;5046159;28;20617;-66
2023/03/08 04:18:40;;;;;;;6.10;4.90;;;0.50;99.90;;;;;;5053316;28;20174;-71
2023/03/08 04:21:06;;;;;;;5.70;5.10;;;0.40;99.90;;;;;;5052187;28;20183;-66
2023/03/08 04:23:33;;;;;;;5.67;5.17;;;0.40;99.90;;;;;;5053239;28;20492;-67
2023/03/08 04:25:59;;;;;;;6.80;4.90;;;0.40;99.90;;;;;;5050731;28;20429;-66
2023/03/08 04:28:25;;;;;;;5.15;4.75;;;0.40;99.90;;;;;;5053096;28;20425;-71
2023/03/08 04:30:50;;;;;;;4.97;4.50;;;0.40;99.90;;;;;;5051842;28;20238;-66
2023/03/08 04:33:16;;;;;;;13.60;5.80;;;0.50;99.90;;;;;;5052050;28;20187;-66
2023/03/08 04:35:42;;;;;;;5.10;4.70;;;0.40;99.90;;;;;;5051908;28;20199;-66
2023/03/08 04:38:07;;;;;;;7.00;5.50;;;0.50;99.90;;;;;;5053088;28;20663;-68
2023/03/08 04:41:00;;;;;;;4.73;4.43;;;0.40;99.90;;;;;;5052880;28;20166;-74
2023/03/08 04:43:18;;;;;;;4.80;4.43;;;0.40;99.90;;;;;;5050677;28;20233;-71
2023/03/08 04:45:44;;;;;;;5.20;4.80;;;0.20;99.90;;;;;;5050759;28;20214;-67
2023/03/08 04:48:10;;;;;;;4.60;4.20;;;0.20;99.90;;;;;;5052895;28;20236;-71
2023/03/08 04:50:38;;;;;;;4.30;4.00;;;0.20;99.90;;;;;;5037921;28;20179;-71
2023/03/08 04:53:04;;;;;;;4.53;4.20;;;0.20;99.90;;;;;;5049430;28;20175;-66
2023/03/08 04:55:30;;;;;;;4.20;3.90;;;0.20;99.90;;;;;;5051946;28;20325;-74
2023/03/08 04:57:55;;;;;;;5.10;4.70;;;0.30;99.90;;;;;;5047744;28;20636;-67
2023/03/08 05:00:21;;;;;;;4.20;3.77;;;0.20;99.90;;;;;;5033235;28;20296;-71
2023/03/08 05:02:47;;;;;;;5.60;4.30;;;0.30;99.90;;;;;;5046358;28;20258;-71
2023/03/08 05:05:13;;;;;;;3.50;3.30;;;0.30;99.90;;;;;;5051766;28;20428;-66
2023/03/08 05:07:39;;;;;;;4.73;4.17;;;0.30;99.90;;;;;;5055873;28;20171;-71
2023/03/08 05:10:05;;;;;;;3.23;3.03;;;0.30;99.90;;;;;;5056783;28;20433;-71
2023/03/08 05:12:30;;;;;;;3.90;3.60;;;0.40;99.90;;;;;;5047058;28;20230;-71
2023/03/08 05:14:56;;;;;;;3.97;3.57;;;0.40;99.90;;;;;;5050664;28;20631;-71
2023/03/08 05:17:22;;;;;;;3.97;3.77;;;0.40;99.90;;;;;;5054934;28;20179;-66
2023/03/08 05:19:47;;;;;;;5.13;3.40;;;0.40;99.90;;;;;;5056356;28;20175;-70
2023/03/08 05:22:13;;;;;;;2.53;2.33;;;0.40;99.90;;;;;;5054991;28;20198;-69
2023/03/08 05:24:40;;;;;;;3.60;3.30;;;0.40;99.90;;;;;;5055526;28;20198;-68
2023/03/08 05:27:06;;;;;;;3.45;3.25;;;0.30;99.90;;;;;;5055084;28;20182;-66
2023/03/08 05:29:33;;;;;;;3.00;2.80;;;0.30;99.90;;;;;;5056379;28;20188;-71
2023/03/08 05:32:01;;;;;;;3.78;3.20;;;0.40;99.90;;;;;;5055199;28;21061;-66
2023/03/08 05:34:27;;;;;;;3.10;2.90;;;0.40;99.90;;;;;;5054411;28;20199;-72
2023/03/08 05:36:53;;;;;;;7.83;7.00;;;0.50;99.90;;;;;;5056198;28;20179;-67
2023/03/08 05:39:18;;;;;;;6.80;3.33;;;0.60;99.90;;;;;;5055655;28;20396;-71
2023/03/08 05:41:47;;;;;;;3.40;3.03;;;0.70;99.90;;;;;;5048713;28;20198;-71
2023/03/08 05:44:12;;;;;;;4.90;3.60;;;0.70;99.90;;;;;;5054853;28;20177;-70
2023/03/08 05:46:38;;;;;;;3.60;3.40;;;0.70;99.90;;;;;;5039025;28;20544;-67
2023/03/08 05:49:05;;;;;;;3.70;3.40;;;0.70;99.90;;;;;;5036112;28;20176;-70
2023/03/08 05:51:30;;;;;;;4.10;3.80;;;0.80;99.90;;;;;;5035488;28;20215;-68
2023/03/08 05:53:56;;;;;;;3.80;3.50;;;0.80;99.90;;;;;;5049892;28;20425;-67
2023/03/08 05:56:23;;;;;;;3.87;3.57;;;0.80;99.90;;;;;;5036032;28;20290;-67
2023/03/08 05:58:50;;;;;;;3.23;3.03;;;0.70;99.90;;;;;;5033604;28;20179;-72
2023/03/08 06:01:19;;;;;;;5.40;4.27;;;0.80;99.90;;;;;;5055468;28;20794;-71
2023/03/08 06:03:47;;;;;;;6.63;4.80;;;0.90;99.90;;;;;;5046375;28;20918;-72
2023/03/08 06:06:13;;;;;;;5.30;4.60;;;0.90;99.90;;;;;;5054173;28;20429;-72
2023/03/08 06:08:39;;;;;;;8.50;5.37;;;0.90;99.90;;;;;;5045699;28;20414;-72
2023/03/08 06:11:05;;;;;;;5.80;5.30;;;0.90;99.90;;;;;;5038907;28;21080;-67
2023/03/08 06:13:30;;;;;;;5.47;5.07;;;0.90;99.90;;;;;;5055541;28;20480;-72
2023/03/08 06:15:57;;;;;;;6.37;5.67;;;0.90;99.90;;;;;;5051361;28;20210;-72
2023/03/08 06:18:24;;;;;;;6.47;5.80;;;0.90;99.90;;;;;;5036405;28;20184;-71
2023/03/08 06:20:59;;;;;;;7.47;5.80;;;0.80;99.90;;;;;;5038928;28;20194;-72
2023/03/08 06:23:26;;;;;;;7.30;5.77;;;0.80;99.90;;;;;;5048113;28;20577;-67
2023/03/08 06:25:52;;;;;;;7.53;6.00;;;0.80;99.90;;;;;;5051295;28;20941;-73
2023/03/08 06:28:18;;;;;;;9.20;5.77;;;0.80;99.90;;;;;;5040698;28;20432;-69
2023/03/08 06:30:43;;;;;;;6.30;5.70;;;0.80;99.90;;;;;;5041854;28;20218;-73
2023/03/08 06:33:09;;;;;;;7.50;6.80;;;0.80;99.90;;;;;;5041362;28;20178;-72
2023/03/08 06:35:35;;;;;;;12.20;6.80;;;0.80;99.90;;;;;;5052132;28;20213;-71
2023/03/08 06:38:00;;;;;;;7.33;6.63;;;0.90;99.90;;;;;;5055360;28;20167;-72
2023/03/08 06:40:26;;;;;;;6.67;6.10;;;0.90;99.90;;;;;;5055049;28;20197;-73
2023/03/08 06:42:52;;;;;;;8.53;7.23;;;0.90;99.90;;;;;;5050840;28;20652;-72
2023/03/08 06:45:17;;;;;;;8.87;7.83;;;0.90;99.90;;;;;;5052814;28;20198;-72
2023/03/08 06:47:43;;;;;;;19.00;7.37;;;0.90;99.90;;;;;;5037818;28;20176;-67
2023/03/08 06:50:10;;;;;;;6.80;6.20;;;1.00;99.90;;;;;;5033756;28;20640;-67
2023/03/08 06:52:36;;;;;;;7.97;6.90;;;1.00;99.90;;;;;;5038942;28;20636;-73
2023/03/08 06:55:05;;;;;;;8.40;6.67;;;1.00;99.90;;;;;;5053697;28;20413;-67
2023/03/08 06:57:31;;;;;;;6.77;6.13;;;1.00;99.90;;;;;;5048084;28;20464;-71
2023/03/08 06:59:57;;;;;;;7.13;5.80;;;0.90;99.90;;;;;;5034757;28;20422;-67
2023/03/08 07:02:23;;;;;;;6.17;5.57;;;0.90;99.90;;;;;;5034250;28;20465;-72
2023/03/08 07:04:48;;;;;;;7.13;5.27;;;0.90;99.90;;;;;;5033704;28;20172;-66
2023/03/08 07:07:14;;;;;;;7.23;5.43;;;0.90;99.90;;;;;;5034531;28;20175;-67
2023/03/08 07:09:40;;;;;;;5.00;4.47;;;0.90;99.90;;;;;;5051434;28;20300;-72
2023/03/08 07:12:06;;;;;;;5.33;4.83;;;0.90;99.90;;;;;;5043185;28;20203;-72
2023/03/08 07:14:31;;;;;;;5.43;4.80;;;0.90;99.90;;;;;;5052133;28;20170;-73
2023/03/08 07:16:57;;;;;;;6.43;5.80;;;0.90;99.90;;;;;;5047678;28;20191;-68
2023/03/08 07:19:23;;;;;;;5.63;5.13;;;1.00;99.90;;;;;;5043125;28;20274;-66
2023/03/08 07:21:48;;;;;;;5.30;4.90;;;1.00;99.90;;;;;;5043922;28;20528;-67
2023/03/08 07:24:14;;;;;;;10.07;5.13;;;0.90;99.90;;;;;;5037806;28;20168;-71
2023/03/08 07:26:40;;;;;;;5.90;5.33;;;1.00;99.90;;;;;;5044888;28;20209;-73
2023/03/08 07:29:06;;;;;;;12.73;5.93;;;1.00;99.90;;;;;;5033427;28;20282;-72
2023/03/08 07:31:35;;;;;;;8.82;5.63;;;1.00;99.90;;;;;;5037435;28;20195;-72
2023/03/08 07:34:03;;;;;;;5.68;4.32;;;1.00;99.90;;;;;;5053954;28;20246;-72
2023/03/08 07:36:29;;;;;;;6.60;5.72;;;1.00;99.90;;;;;;5052162;28;20203;-66
2023/03/08 07:38:55;;;;;;;7.17;6.47;;;1.10;99.90;;;;;;5053982;28;20656;-67
2023/03/08 07:41:21;;;;;;;5.40;5.00;;;1.10;99.90;;;;;;5048542;28;20437;-72
2023/03/08 07:43:46;;;;;;;7.03;6.33;;;1.00;99.90;;;;;;5033614;28;20228;-66
2023/03/08 07:46:12;;;;;;;7.77;6.00;;;1.10;99.90;;;;;;5040673;28;20199;-72
2023/03/08 07:48:38;;;;;;;6.07;5.47;;;1.10;99.90;;;;;;5047122;28;20171;-72
2023/03/08 07:51:07;;;;;;;5.27;4.97;;;1.10;99.90;;;;;;5033226;28;20457;-66
2023/03/08 07:53:34;;;;;;;6.93;5.93;;;1.10;99.90;;;;;;5033733;28;20175;-72
2023/03/08 07:56:00;;;;;;;6.37;5.80;;;1.10;99.90;;;;;;5038196;28;20203;-72
2023/03/08 07:58:27;;;;;;;6.43;5.83;;;1.20;99.90;;;;;;5052943;28;20929;-72
2023/03/08 08:00:53;;;;;;;6.00;4.90;;;1.20;99.90;;;;;;5053573;28;20163;-68
2023/03/08 08:03:19;;;;;;;5.90;5.30;;;1.20;99.90;;;;;;5051496;28;20414;-73
2023/03/08 08:05:44;;;;;;;6.40;5.70;;;1.20;99.90;;;;;;5034708;28;20446;-73
2023/03/08 08:08:12;;;;;;;5.73;5.20;;;1.20;99.90;;;;;;5031948;28;20958;-72
2023/03/08 08:10:39;;;;;;;6.53;5.93;;;1.30;99.90;;;;;;5047099;28;20171;-67
2023/03/08 08:13:05;;;;;;;7.17;5.63;;;1.20;99.90;;;;;;5044797;28;20910;-67
2023/03/08 08:15:31;;;;;;;6.30;5.70;;;1.20;99.90;;;;;;5031170;28;20546;-71
2023/03/08 08:17:58;;;;;;;5.57;5.07;;;1.40;99.90;;;;;;5041025;28;20175;-71
2023/03/08 08:20:25;;;;;;;5.60;5.10;;;1.60;99.90;;;;;;5053263;28;20393;-66
2023/03/08 08:22:52;;;;;;;5.57;4.90;;;1.70;99.90;;;;;;5043843;28;20822;-67
2023/03/08 08:25:19;;;;;;;11.83;5.80;;;1.70;99.90;;;;;;5031291;28;20507;-71
2023/03/08 08:27:45;;;;;;;5.70;5.20;;;1.70;99.90;;;;;;5040240;28;20952;-71
2023/03/08 08:30:13;;;;;;;6.43;5.80;;;1.70;99.90;;;;;;5050412;28;20429;-68
2023/03/08 08:32:39;;;;;;;5.97;5.10;;;1.60;99.90;;;;;;5044499;28;20438;-67
2023/03/08 08:35:06;;;;;;;5.07;4.60;;;1.70;99.90;;;;;;5042669;28;20461;-71
2023/03/08 08:37:32;;;;;;;5.97;5.47;;;1.70;99.90;;;;;;5047817;28;20442;-67
2023/03/08 08:39:59;;;;;;;5.30;4.90;;;1.80;99.90;;;;;;5032549;28;20512;-71
2023/03/08 08:42:25;;;;;;;11.23;5.67;;;1.90;99.90;;;;;;5034489;28;20426;-67
2023/03/08 08:44:55;;;;;;;6.60;6.00;;;2.00;99.90;;;;;;5039551;28;20440;-71
2023/03/08 08:47:20;;;;;;;5.73;5.13;;;2.00;99.90;;;;;;5050399;28;20436;-67
2023/03/08 08:49:46;;;;;;;6.57;5.27;;;1.90;99.90;;;;;;5032433;28;20414;-67
2023/03/08 08:52:13;;;;;;;6.53;5.93;;;1.90;99.90;;;;;;5032542;28;20211;-68
2023/03/08 08:54:39;;;;;;;7.83;5.47;;;1.90;99.90;;;;;;5043869;28;20680;-70
2023/03/08 08:57:07;;;;;;;10.10;6.20;;;2.00;99.90;;;;;;5049504;28;20426;-71
2023/03/08 08:59:33;;;;;;;7.53;6.83;;;1.90;99.90;;;;;;5052697;28;20167;-72
2023/03/08 09:01:59;;;;;;;5.87;5.20;;;2.00;99.90;;;;;;5039852;28;20429;-68
2023/03/08 09:04:24;;;;;;;6.23;5.63;;;2.10;99.90;;;;;;5045951;28;20258;-70
2023/03/08 09:06:52;;;;;;;8.73;6.53;;;2.10;99.90;;;;;;5041285;28;20286;-70
2023/03/08 09:09:18;;;;;;;8.03;5.50;;;2.10;99.90;;;;;;5036376;28;20175;-70
2023/03/08 09:11:46;;;;;;;6.43;5.83;;;1.90;99.90;;;;;;5045663;28;20455;-66
2023/03/08 09:14:12;;;;;;;6.20;5.60;;;1.80;99.90;;;;;;5048787;28;20552;-70
2023/03/08 09:16:37;;;;;;;7.17;6.50;;;2.00;99.90;;;;;;5032185;28;20529;-65
2023/03/08 09:19:04;;;;;;;5.63;5.23;;;1.90;99.90;;;;;;5030957;28;20572;-67
2023/03/08 09:21:31;;;;;;;7.13;6.53;;;2.00;99.90;;;;;;5042139;28;20184;-68
2023/03/08 09:24:02;;;;;;;8.73;6.50;;;1.90;99.90;;;;;;5052251;28;20894;-74
2023/03/08 09:26:32;;;;;;;7.10;6.03;;;1.90;99.90;;;;;;5039012;28;20445;-73
2023/03/08 09:29:03;;;;;;;6.77;6.23;;;2.00;99.90;;;;;;5052132;28;20404;-72
2023/03/08 09:31:30;;;;;;;6.43;5.80;;;2.20;99.90;;;;;;5043166;28;20856;-72
2023/03/08 09:33:56;;;;;;;8.87;6.13;;;2.30;99.90;;;;;;5041656;28;20508;-73
2023/03/08 09:36:22;;;;;;;6.13;5.57;;;2.50;99.90;;;;;;5042629;28;20552;-72
2023/03/08 09:38:49;;;;;;;6.60;6.00;;;2.60;99.90;;;;;;5052557;28;20493;-68
2023/03/08 09:41:26;;;;;;;5.43;4.50;;;2.70;99.90;;;;;;5045953;28;20866;-72
2023/03/08 09:44:29;;;;;;;6.33;5.73;;;2.70;99.90;;;;;;5044162;28;20487;-71
2023/03/08 09:47:10;;;;;;;5.23;4.70;;;2.70;99.90;;;;;;5040419;28;20795;-69
2023/03/08 09:49:37;;;;;;;4.67;4.27;;;2.50;99.90;;;;;;5032824;28;20904;-71
2023/03/08 09:52:06;;;;;;;4.90;4.50;;;2.40;99.90;;;;;;5042438;28;20479;-67
2023/03/08 09:54:37;;;;;;;5.10;4.73;;;2.10;99.90;;;;;;5046736;28;20484;-70
2023/03/08 09:57:07;;;;;;;5.83;5.30;;;1.90;99.90;;;;;;5046690;28;20471;-68
2023/03/08 10:00:06;;;;;;;5.90;5.30;;;1.90;99.90;;;;;;5055889;28;20436;-68
2023/03/08 10:02:48;;;;;;;4.60;4.20;;;2.10;99.90;;;;;;5039696;28;20417;-72
2023/03/08 10:05:29;;;;;;;4.70;4.40;;;2.20;99.90;;;;;;5040232;28;20861;-66
2023/03/08 10:08:13;;;;;;;5.10;4.70;;;2.20;99.90;;;;;;5055028;28;20408;-67
2023/03/08 10:11:00;;;;;;;7.37;5.10;;;2.30;99.90;;;;;;5053721;28;20405;-67
2023/03/08 10:13:32;;;;;;;7.47;5.33;;;2.30;99.90;;;;;;5035842;28;20887;-70
2023/03/08 10:16:23;;;;;;;5.90;5.40;;;2.30;99.90;;;;;;5038733;28;20426;-68
2023/03/08 10:19:05;;;;;;;4.83;4.40;;;2.40;99.90;;;;;;5052972;28;20418;-67
2023/03/08 10:21:35;;;;;;;7.10;5.40;;;2.60;99.90;;;;;;5041763;28;20491;-70
2023/03/08 10:24:25;;;;;;;5.60;5.20;;;2.70;99.90;;;;;;5053312;28;20425;-71
2023/03/08 10:27:05;;;;;;;5.03;4.60;;;2.80;99.90;;;;;;5040162;28;20438;-69
2023/03/08 10:29:31;;;;;;;4.40;4.10;;;2.90;99.90;;;;;;5036486;28;20405;-68
2023/03/08 10:31:57;;;;;;;5.30;4.80;;;3.00;99.90;;;;;;5045179;28;20446;-67
2023/03/08 10:34:29;;;;;;;5.80;5.40;;;3.10;99.90;;;;;;5039070;28;21043;-67
2023/03/08 10:37:05;;;;;;;5.53;4.40;;;3.10;99.60;;;;;;5053172;28;20222;-69
2023/03/08 10:39:31;;;;;;;6.23;5.63;;;3.00;90.00;;;;;;5035176;28;20460;-69
2023/03/08 10:41:59;;;;;;;5.27;4.87;;;3.00;90.00;;;;;;5034031;28;20442;-71
2023/03/08 10:44:35;;;;;;;5.63;5.13;;;3.10;92.50;;;;;;5052930;28;20441;-71
2023/03/08 10:47:15;;;;;;;6.50;5.53;;;3.40;96.30;;;;;;5052459;28;20547;-71
2023/03/08 10:49:42;;;;;;;5.10;4.70;;;3.50;90.20;;;;;;5035010;28;20458;-68
2023/03/08 10:52:22;;;;;;;5.70;5.20;;;3.50;90.20;;;;;;5041028;28;21109;-72
2023/03/08 10:55:08;;;;;;;7.87;5.77;;;3.50;90.20;;;;;;5048113;28;20417;-72
2023/03/08 10:57:34;;;;;;;6.07;5.47;;;3.70;90.30;;;;;;5049908;28;20402;-69
2023/03/08 11:00:19;;;;;;;5.27;4.87;;;3.60;76.40;;;;;;5034431;28;20398;-73
2023/03/08 11:02:47;;;;;;;7.83;5.07;;;3.50;80.10;;;;;;5038922;28;20492;-71
2023/03/08 11:05:30;;;;;;;6.53;5.83;;;3.20;61.70;;;;;;5046553;28;20441;-70
2023/03/08 11:07:58;;;;;;;6.30;5.40;;;3.30;71.60;;;;;;5047716;28;20930;-70
2023/03/08 11:10:26;;;;;;;5.73;5.23;;;3.30;73.20;;;;;;5033300;28;20412;-73
2023/03/08 11:13:14;;;;;;;5.20;4.80;;;3.50;90.20;;;;;;5038261;28;20457;-73
2023/03/08 11:15:44;;;;;;;13.60;5.83;;;3.70;84.40;;;;;;5045400;28;20803;-73
2023/03/08 11:18:12;;;;;;;4.73;4.13;;;3.50;55.40;;;;;;5032333;28;20438;-71
2023/03/08 11:20:44;;;;;;;5.10;4.60;;;3.50;54.40;;;;;;5032848;28;20777;-74
2023/03/08 11:23:22;;;;;;;4.33;3.93;;;3.50;51.40;;;;;;5037555;28;20431;-70
2023/03/08 11:26:15;;;;;;;4.70;4.00;;;3.50;45.20;;;;;;5047886;28;20938;-71
2023/03/08 11:28:55;;;;;;;4.03;3.83;;;3.30;38.30;;;;;;5039728;28;20422;-73
2023/03/08 11:31:29;;;;;;;4.67;4.30;;;3.20;31.50;;;;;;5034662;28;20993;-72
2023/03/08 11:34:23;;;;;;;5.13;4.60;;;3.20;30.00;;;;;;5032445;28;20438;-73
2023/03/08 11:37:00;;;;;;;4.63;4.23;;;3.20;37.10;;;;;;5052299;28;20922;-71
2023/03/08 11:39:29;;;;;;;5.23;4.70;;;3.20;26.50;;;;;;5032055;28;20425;-71
2023/03/08 11:42:19;;;;;;;5.00;4.60;;;3.20;28.40;;;;;;5035397;28;20417;-72
2023/03/08 11:45:21;;;;;;;4.93;4.53;;;3.40;35.90;;;;;;5037943;28;20431;-72
2023/03/08 11:48:25;;;;;;;6.17;5.67;;;3.30;23.40;;;;;;5034018;28;20402;-69
2023/03/08 11:51:10;;;;;;;5.20;4.80;;;3.30;22.70;;;;;;5037442;28;20454;-71
2023/03/08 11:53:48;;;;;;;5.20;4.83;;;3.30;15.60;;;;;;5032785;28;20442;-71
2023/03/08 11:56:25;;;;;;;4.73;4.40;;;3.30;18.30;;;;;;5033536;28;20454;-72
2023/03/08 11:59:01;;;;;;;6.63;4.80;;;3.20;20.40;;;;;;5049496;28;20781;-73
2023/03/08 12:01:47;;;;;;;5.53;5.00;;;3.30;16.90;;;;;;5053586;28;20409;-72
2023/03/08 12:04:20;;;;;;;6.50;5.50;;;3.30;17.60;;;;;;5034467;28;20518;-72
2023/03/08 12:06:46;;;;;;;5.80;4.47;;;3.40;25.30;;;;;;5052427;28;20438;-72
2023/03/08 12:09:15;;;;;;;5.17;4.77;;;3.50;20.80;;;;;;5033662;28;20480;-71
2023/03/08 12:11:45;;;;;;;4.37;3.97;;;3.60;20.20;;;;;;5035416;28;20461;-72
2023/03/08 12:14:19;;;;;;;5.30;4.10;;;3.70;10.20;;;;;;5050129;28;20509;-71
2023/03/08 12:16:58;;;;;;;4.83;4.43;;;3.80;9.70;;;;;;5048043;28;20453;-73
2023/03/08 12:19:41;;;;;;;6.03;5.47;;;3.90;1.00;;;;;;5032008;28;20847;-69
2023/03/08 12:22:34;;;;;;;4.90;4.50;;;4.00;1.00;;;;;;5033235;28;20419;-73
2023/03/08 12:25:39;;;;;;;4.70;4.30;;;3.80;1.00;;;;;;5037318;28;20540;-72
2023/03/08 12:28:27;;;;;;;4.70;4.30;;;3.80;1.00;;;;;;5033275;28;20410;-68
2023/03/08 12:31:12;;;;;;;4.93;4.63;;;3.60;1.00;;;;;;5048691;28;20414;-72
2023/03/08 12:33:38;;;;;;;7.13;5.13;;;3.50;1.00;;;;;;5035307;28;20429;-67
2023/03/08 12:36:06;;;;;;;4.97;4.53;;;3.50;1.00;;;;;;5047451;28;20935;-67
2023/03/08 12:38:45;;;;;;;5.67;4.53;;;3.60;1.00;;;;;;5040509;28;20415;-72
2023/03/08 12:41:28;;;;;;;9.30;5.67;;;3.70;1.00;;;;;;5044141;28;20972;-67
2023/03/08 12:44:20;;;;;;;5.23;4.83;;;3.70;1.00;;;;;;5049324;28;20425;-67
2023/03/08 12:46:58;;;;;;;4.97;4.60;;;3.60;1.00;;;;;;5035333;28;20444;-67
2023/03/08 12:50:00;;;;;;;5.10;4.70;;;3.60;1.00;;;;;;5042622;28;20945;-67
2023/03/08 12:52:33;;;;;;;5.20;4.70;;;3.50;1.00;;;;;;5047544;28;20453;-71
2023/03/08 12:55:05;;;;;;;4.90;4.50;;;3.50;1.00;;;;;;5037772;28;20871;-71
2023/03/08 12:57:45;;;;;;;6.23;4.53;;;3.50;1.00;;;;;;5039216;28;20431;-72
2023/03/08 13:00:32;;;;;;;4.80;4.43;;;3.50;1.00;;;;;;5045100;28;20432;-68
2023/03/08 13:03:18;;;;;;;4.60;4.10;;;3.30;1.00;;;;;;5050679;28;20417;-67
2023/03/08 13:05:46;;;;;;;4.63;4.27;;;3.20;1.00;;;;;;5063060;28;20433;-72
2023/03/08 13:08:11;;;;;;;4.80;4.50;;;3.20;1.00;;;;;;5043957;28;20451;-71
2023/03/08 13:10:49;;;;;;;4.87;4.47;;;3.30;1.00;;;;;;5034633;28;20821;-72